createdAt,value
2019-01-22T00:00:06.630Z,0.00
2019-01-22T00:01:06.616Z,0.00
2019-01-22T00:02:06.603Z,0.00
2019-01-22T00:03:06.591Z,0.00
2019-01-22T00:04:06.578Z,0.00
2019-01-22T00:05:06.573Z,0.00
2019-01-22T00:06:06.556Z,0.00
2019-01-22T00:07:06.539Z,0.00
2019-01-22T00:08:06.529Z,0.00
2019-01-22T00:09:06.547Z,0.00
2019-01-22T00:10:06.502Z,0.00
2019-01-22T00:11:06.489Z,0.00
2019-01-22T00:12:06.481Z,0.00
2019-01-22T00:13:06.464Z,0.00
2019-01-22T00:14:06.442Z,0.00
2019-01-22T00:15:06.440Z,0.00
2019-01-22T00:16:06.427Z,0.00
2019-01-22T00:17:06.414Z,0.00
2019-01-22T00:18:06.401Z,0.00
2019-01-22T00:19:06.388Z,0.00
2019-01-22T00:20:06.377Z,0.00
2019-01-22T00:21:06.396Z,0.00
2019-01-22T00:22:06.366Z,0.00
2019-01-22T00:23:06.337Z,0.00
2019-01-22T00:24:06.324Z,0.00
2019-01-22T00:25:06.312Z,0.00
2019-01-22T00:26:06.298Z,0.00
2019-01-22T00:27:06.286Z,0.00
2019-01-22T00:28:06.272Z,0.00
2019-01-22T00:29:06.266Z,0.00
2019-01-22T00:30:06.248Z,0.00
2019-01-22T00:31:06.233Z,0.00
2019-01-22T00:32:06.216Z,0.00
2019-01-22T00:33:06.212Z,0.00
2019-01-22T00:34:06.207Z,0.00
2019-01-22T00:35:06.195Z,0.00
2019-01-22T00:36:06.168Z,0.00
2019-01-22T00:37:06.155Z,0.00
2019-01-22T00:38:06.141Z,0.00
2019-01-22T00:39:06.134Z,0.00
2019-01-22T00:40:06.117Z,0.00
2019-01-22T00:41:06.103Z,0.00
2019-01-22T00:42:06.091Z,0.00
2019-01-22T00:43:06.067Z,0.00
2019-01-22T00:44:06.066Z,0.00
2019-01-22T00:45:06.046Z,0.00
2019-01-22T00:46:06.039Z,0.00
2019-01-22T00:47:06.027Z,0.00
2019-01-22T00:48:06.012Z,0.00
2019-01-22T00:49:06.001Z,0.00
2019-01-22T00:50:05.987Z,0.00
2019-01-22T00:51:05.974Z,0.00
2019-01-22T00:52:05.963Z,0.00
2019-01-22T00:53:09.978Z,0.00
2019-01-22T00:54:05.937Z,0.00
2019-01-22T00:55:05.942Z,0.00
2019-01-22T00:56:05.912Z,0.00
2019-01-22T00:57:05.900Z,0.00
2019-01-22T00:58:05.875Z,0.00
2019-01-22T00:59:05.873Z,0.00
2019-01-22T01:00:05.861Z,0.00
2019-01-22T01:01:05.847Z,0.00
2019-01-22T01:02:05.834Z,0.00
2019-01-22T01:03:05.822Z,0.00
2019-01-22T01:04:05.971Z,0.00
2019-01-22T01:05:05.797Z,0.00
2019-01-22T01:06:05.784Z,0.00
2019-01-22T01:07:05.770Z,0.00
2019-01-22T01:08:05.757Z,0.00
2019-01-22T01:09:05.743Z,0.00
2019-01-22T01:10:05.732Z,0.00
2019-01-22T01:11:08.137Z,0.00
2019-01-22T01:12:06.042Z,0.00
2019-01-22T01:13:05.698Z,0.00
2019-01-22T01:14:05.710Z,0.00
2019-01-22T01:15:05.670Z,0.00
2019-01-22T01:16:05.656Z,0.00
2019-01-22T01:17:05.645Z,0.00
2019-01-22T01:18:05.632Z,0.00
2019-01-22T01:19:05.620Z,0.00
2019-01-22T01:20:05.608Z,0.00
2019-01-22T01:21:05.596Z,0.00
2019-01-22T01:22:05.588Z,0.00
2019-01-22T01:23:05.571Z,0.00
2019-01-22T01:24:05.558Z,0.00
2019-01-22T01:25:05.543Z,0.00
2019-01-22T01:26:05.530Z,0.00
2019-01-22T01:27:05.536Z,0.00
2019-01-22T01:28:05.511Z,0.00
2019-01-22T01:29:05.494Z,0.00
2019-01-22T01:30:05.482Z,0.00
2019-01-22T01:31:05.469Z,0.00
2019-01-22T01:32:05.455Z,0.00
2019-01-22T01:33:05.443Z,0.00
2019-01-22T01:34:05.433Z,0.00
2019-01-22T01:35:05.419Z,0.00
2019-01-22T01:36:05.405Z,0.00
2019-01-22T01:37:05.394Z,0.00
2019-01-22T01:38:05.381Z,0.00
2019-01-22T01:39:05.370Z,0.00
2019-01-22T01:40:05.357Z,0.00
2019-01-22T01:41:05.345Z,0.00
2019-01-22T01:42:05.332Z,0.00
2019-01-22T01:43:05.322Z,0.00
2019-01-22T01:44:05.308Z,0.00
2019-01-22T01:45:05.289Z,0.00
2019-01-22T01:46:05.281Z,0.00
2019-01-22T01:47:05.266Z,0.00
2019-01-22T01:48:05.259Z,0.00
2019-01-22T01:49:05.246Z,0.00
2019-01-22T01:50:05.246Z,0.00
2019-01-22T01:51:05.221Z,0.00
2019-01-22T01:52:05.208Z,0.00
2019-01-22T01:53:05.194Z,0.00
2019-01-22T01:54:05.184Z,0.00
2019-01-22T01:55:05.170Z,0.00
2019-01-22T01:56:05.156Z,0.00
2019-01-22T01:57:05.143Z,0.00
2019-01-22T01:58:05.132Z,0.00
2019-01-22T01:59:05.120Z,0.00
2019-01-22T02:00:05.099Z,0.00
2019-01-22T02:01:05.096Z,0.00
2019-01-22T02:02:07.176Z,0.00
2019-01-22T02:03:05.072Z,0.00
2019-01-22T02:04:05.058Z,0.00
2019-01-22T02:05:05.044Z,0.00
2019-01-22T02:06:05.033Z,0.00
2019-01-22T02:07:05.019Z,0.00
2019-01-22T02:08:05.007Z,0.00
2019-01-22T02:09:04.991Z,0.00
2019-01-22T02:10:04.981Z,0.00
2019-01-22T02:11:04.970Z,0.00
2019-01-22T02:12:04.956Z,0.00
2019-01-22T02:13:04.934Z,0.00
2019-01-22T02:14:04.931Z,0.00
2019-01-22T02:15:04.917Z,0.00
2019-01-22T02:16:04.905Z,0.00
2019-01-22T02:17:04.891Z,0.00
2019-01-22T02:18:04.879Z,0.00
2019-01-22T02:19:04.870Z,0.00
2019-01-22T02:20:04.855Z,0.00
2019-01-22T02:21:04.847Z,0.00
2019-01-22T02:22:04.830Z,0.00
2019-01-22T02:23:04.817Z,0.00
2019-01-22T02:24:04.804Z,0.00
2019-01-22T02:25:04.788Z,0.00
2019-01-22T02:26:04.777Z,0.00
2019-01-22T02:27:04.765Z,0.00
2019-01-22T02:28:04.754Z,0.00
2019-01-22T02:29:04.743Z,0.00
2019-01-22T02:30:04.743Z,0.00
2019-01-22T02:31:04.714Z,0.00
2019-01-22T02:32:04.706Z,0.00
2019-01-22T02:33:04.688Z,0.00
2019-01-22T02:34:04.679Z,0.00
2019-01-22T02:35:04.663Z,0.00
2019-01-22T02:36:04.655Z,0.00
2019-01-22T02:37:04.646Z,0.00
2019-01-22T02:38:04.622Z,0.00
2019-01-22T02:39:04.613Z,0.00
2019-01-22T02:40:04.600Z,0.00
2019-01-22T02:41:04.586Z,0.00
2019-01-22T02:42:04.576Z,0.00
2019-01-22T02:43:04.598Z,0.00
2019-01-22T02:44:04.556Z,0.00
2019-01-22T02:45:04.535Z,0.00
2019-01-22T02:46:04.522Z,0.00
2019-01-22T02:47:04.510Z,0.00
2019-01-22T02:48:04.498Z,0.00
2019-01-22T02:49:04.484Z,0.00
2019-01-22T02:50:04.470Z,0.00
2019-01-22T02:51:04.458Z,0.00
2019-01-22T02:52:04.447Z,0.00
2019-01-22T02:53:06.910Z,0.00
2019-01-22T02:54:04.422Z,0.00
2019-01-22T02:55:04.407Z,0.00
2019-01-22T02:56:04.394Z,0.00
2019-01-22T02:57:04.384Z,0.00
2019-01-22T02:58:04.367Z,0.00
2019-01-22T02:59:04.356Z,0.00
2019-01-22T03:00:04.345Z,0.00
2019-01-22T03:01:04.330Z,0.00
2019-01-22T03:02:04.309Z,0.00
2019-01-22T03:03:04.305Z,0.00
2019-01-22T03:04:04.293Z,0.00
2019-01-22T03:05:04.294Z,0.00
2019-01-22T03:06:04.271Z,0.00
2019-01-22T03:07:04.259Z,0.00
2019-01-22T03:08:04.256Z,0.00
2019-01-22T03:09:04.227Z,0.00
2019-01-22T03:10:04.217Z,0.00
2019-01-22T03:11:04.204Z,0.00
2019-01-22T03:12:04.190Z,0.00
2019-01-22T03:13:04.178Z,0.00
2019-01-22T03:14:04.165Z,0.00
2019-01-22T03:15:04.153Z,0.00
2019-01-22T03:16:04.145Z,0.00
2019-01-22T03:17:04.128Z,0.00
2019-01-22T03:18:04.107Z,0.00
2019-01-22T03:19:04.104Z,0.00
2019-01-22T03:20:04.090Z,0.00
2019-01-22T03:21:04.077Z,0.00
2019-01-22T03:22:04.069Z,0.00
2019-01-22T03:23:04.058Z,0.00
2019-01-22T03:24:04.038Z,0.00
2019-01-22T03:25:04.031Z,0.00
2019-01-22T03:26:04.015Z,0.00
2019-01-22T03:27:04.003Z,0.00
2019-01-22T03:28:03.982Z,0.00
2019-01-22T03:29:03.978Z,0.00
2019-01-22T03:30:03.964Z,0.00
2019-01-22T03:31:03.956Z,0.00
2019-01-22T03:32:03.942Z,0.00
2019-01-22T03:33:03.930Z,0.00
2019-01-22T03:34:03.920Z,0.00
2019-01-22T03:35:03.904Z,0.00
2019-01-22T03:36:03.892Z,0.00
2019-01-22T03:37:03.879Z,0.00
2019-01-22T03:38:03.866Z,0.00
2019-01-22T03:39:03.859Z,0.00
2019-01-22T03:40:03.840Z,0.00
2019-01-22T03:41:03.838Z,0.00
2019-01-22T03:42:03.808Z,0.00
2019-01-22T03:43:03.828Z,0.00
2019-01-22T03:44:03.796Z,0.00
2019-01-22T03:45:03.782Z,0.00
2019-01-22T03:46:03.759Z,0.00
2019-01-22T03:47:03.756Z,0.00
2019-01-22T03:48:03.749Z,0.00
2019-01-22T03:49:03.732Z,0.00
2019-01-22T03:50:03.729Z,0.00
2019-01-22T03:51:03.706Z,0.00
2019-01-22T03:52:03.702Z,0.00
2019-01-22T03:53:03.682Z,0.00
2019-01-22T03:54:03.681Z,0.00
2019-01-22T03:55:03.660Z,0.00
2019-01-22T03:56:03.646Z,0.00
2019-01-22T03:57:03.629Z,0.00
2019-01-22T03:58:03.622Z,0.00
2019-01-22T03:59:03.606Z,0.00
2019-01-22T04:00:03.604Z,0.00
2019-01-22T04:01:03.587Z,0.00
2019-01-22T04:02:03.584Z,0.00
2019-01-22T04:03:03.559Z,0.00
2019-01-22T04:04:03.543Z,0.00
2019-01-22T04:05:03.536Z,0.00
2019-01-22T04:06:03.527Z,0.00
2019-01-22T04:07:03.519Z,0.00
2019-01-22T04:08:03.501Z,0.00
2019-01-22T04:09:03.485Z,0.00
2019-01-22T04:10:03.485Z,0.00
2019-01-22T04:11:03.462Z,0.00
2019-01-22T04:12:03.449Z,0.00
2019-01-22T04:13:03.436Z,0.00
2019-01-22T04:14:03.423Z,0.00
2019-01-22T04:15:03.418Z,0.00
2019-01-22T04:16:03.402Z,0.00
2019-01-22T04:17:03.390Z,0.00
2019-01-22T04:18:03.382Z,0.00
2019-01-22T04:19:03.365Z,0.00
2019-01-22T04:20:03.352Z,0.00
2019-01-22T04:21:03.339Z,0.00
2019-01-22T04:22:03.327Z,0.00
2019-01-22T04:23:03.323Z,0.00
2019-01-22T04:24:03.306Z,0.00
2019-01-22T04:25:03.290Z,0.00
2019-01-22T04:26:03.277Z,0.00
2019-01-22T04:27:03.265Z,0.00
2019-01-22T04:28:03.253Z,0.00
2019-01-22T04:29:03.242Z,0.00
2019-01-22T04:30:03.227Z,0.00
2019-01-22T04:31:03.218Z,0.00
2019-01-22T04:32:03.210Z,0.00
2019-01-22T04:33:03.188Z,0.00
2019-01-22T04:34:03.179Z,0.00
2019-01-22T04:35:03.168Z,0.00
2019-01-22T04:36:03.154Z,0.00
2019-01-22T04:37:03.138Z,0.00
2019-01-22T04:38:03.125Z,0.00
2019-01-22T04:39:03.114Z,0.00
2019-01-22T04:40:03.121Z,0.00
2019-01-22T04:41:03.091Z,0.00
2019-01-22T04:42:03.079Z,0.00
2019-01-22T04:43:03.088Z,0.00
2019-01-22T04:44:03.059Z,0.00
2019-01-22T04:45:03.042Z,0.00
2019-01-22T04:46:03.028Z,0.00
2019-01-22T04:47:03.014Z,0.00
2019-01-22T04:48:03.011Z,0.00
2019-01-22T04:49:02.989Z,0.00
2019-01-22T04:50:02.977Z,0.00
2019-01-22T04:51:02.962Z,0.00
2019-01-22T04:52:02.947Z,0.00
2019-01-22T04:53:02.935Z,0.00
2019-01-22T04:54:09.394Z,0.00
2019-01-22T04:55:02.913Z,0.00
2019-01-22T04:56:02.913Z,0.00
2019-01-22T04:57:02.888Z,0.00
2019-01-22T04:58:02.878Z,0.00
2019-01-22T04:59:02.866Z,0.00
2019-01-22T05:00:02.863Z,0.00
2019-01-22T05:01:02.838Z,0.00
2019-01-22T05:02:02.826Z,0.00
2019-01-22T05:03:02.812Z,0.00
2019-01-22T05:04:02.806Z,0.00
2019-01-22T05:05:02.786Z,0.00
2019-01-22T05:06:02.770Z,0.00
2019-01-22T05:07:02.766Z,0.00
2019-01-22T05:08:02.772Z,0.00
2019-01-22T05:09:02.743Z,0.00
2019-01-22T05:10:02.742Z,0.00
2019-01-22T05:11:02.712Z,0.00
2019-01-22T05:12:02.700Z,0.00
2019-01-22T05:13:02.685Z,0.00
2019-01-22T05:14:02.672Z,0.00
2019-01-22T05:15:02.661Z,0.00
2019-01-22T05:16:02.651Z,0.00
2019-01-22T05:17:02.636Z,0.00
2019-01-22T05:18:02.641Z,0.00
2019-01-22T05:19:02.599Z,0.00
2019-01-22T05:20:02.602Z,0.00
2019-01-22T05:21:02.592Z,0.00
2019-01-22T05:22:02.576Z,0.00
2019-01-22T05:23:02.560Z,0.00
2019-01-22T05:24:02.594Z,0.00
2019-01-22T05:25:02.533Z,0.00
2019-01-22T05:26:02.528Z,0.00
2019-01-22T05:27:02.514Z,0.00
2019-01-22T05:28:02.497Z,0.00
2019-01-22T05:29:02.501Z,0.00
2019-01-22T05:30:02.468Z,0.00
2019-01-22T05:31:02.458Z,0.00
2019-01-22T05:32:02.447Z,0.00
2019-01-22T05:33:02.437Z,0.00
2019-01-22T05:34:02.426Z,0.00
2019-01-22T05:35:02.407Z,0.00
2019-01-22T05:36:02.393Z,0.00
2019-01-22T05:37:02.381Z,0.00
2019-01-22T05:38:02.368Z,0.00
2019-01-22T05:39:02.356Z,0.00
2019-01-22T05:40:02.342Z,0.00
2019-01-22T05:41:02.328Z,0.00
2019-01-22T05:42:02.317Z,0.00
2019-01-22T05:43:02.305Z,0.00
2019-01-22T05:44:02.293Z,0.00
2019-01-22T05:45:02.269Z,0.00
2019-01-22T05:46:02.265Z,0.00
2019-01-22T05:47:02.253Z,0.00
2019-01-22T05:48:02.240Z,0.00
2019-01-22T05:49:02.227Z,0.00
2019-01-22T05:50:02.216Z,0.00
2019-01-22T05:51:02.201Z,0.00
2019-01-22T05:52:02.199Z,0.00
2019-01-22T05:53:02.211Z,0.00
2019-01-22T05:54:02.164Z,0.00
2019-01-22T05:55:02.157Z,0.00
2019-01-22T05:56:02.135Z,0.00
2019-01-22T05:57:02.128Z,0.00
2019-01-22T05:58:02.111Z,0.00
2019-01-22T05:59:02.099Z,0.00
2019-01-22T06:00:02.090Z,0.00
2019-01-22T06:01:02.076Z,0.00
2019-01-22T06:02:02.063Z,0.00
2019-01-22T06:03:02.048Z,0.00
2019-01-22T06:04:02.037Z,0.00
2019-01-22T06:05:02.024Z,0.00
2019-01-22T06:06:02.011Z,0.00
2019-01-22T06:07:01.998Z,0.00
2019-01-22T06:08:01.975Z,0.00
2019-01-22T06:09:01.973Z,0.00
2019-01-22T06:10:01.957Z,0.00
2019-01-22T06:11:01.948Z,0.00
2019-01-22T06:12:01.927Z,0.00
2019-01-22T06:13:01.928Z,0.00
2019-01-22T06:14:01.912Z,0.00
2019-01-22T06:15:01.899Z,0.00
2019-01-22T06:16:01.887Z,0.00
2019-01-22T06:17:01.874Z,0.00
2019-01-22T06:18:01.859Z,0.00
2019-01-22T06:19:01.850Z,0.00
2019-01-22T06:20:01.860Z,0.00
2019-01-22T06:21:01.822Z,0.00
2019-01-22T06:22:01.809Z,0.00
2019-01-22T06:23:01.798Z,0.00
2019-01-22T06:24:01.810Z,0.00
2019-01-22T06:25:01.787Z,0.00
2019-01-22T06:26:01.765Z,0.00
2019-01-22T06:27:01.746Z,0.00
2019-01-22T06:28:01.738Z,0.00
2019-01-22T06:29:01.731Z,0.00
2019-01-22T06:30:01.718Z,0.00
2019-01-22T06:31:01.698Z,0.00
2019-01-22T06:32:01.684Z,0.00
2019-01-22T06:33:01.672Z,0.00
2019-01-22T06:34:01.674Z,0.00
2019-01-22T06:35:01.699Z,0.00
2019-01-22T06:36:01.634Z,0.00
2019-01-22T06:37:01.641Z,0.00
2019-01-22T06:38:01.610Z,0.00
2019-01-22T06:39:01.598Z,0.00
2019-01-22T06:40:01.588Z,0.00
2019-01-22T06:41:01.570Z,0.00
2019-01-22T06:42:01.558Z,0.00
2019-01-22T06:43:01.546Z,0.00
2019-01-22T06:44:01.535Z,0.00
2019-01-22T06:45:01.520Z,0.00
2019-01-22T06:46:01.506Z,0.00
2019-01-22T06:47:01.491Z,0.00
2019-01-22T06:48:01.473Z,0.00
2019-01-22T06:49:01.467Z,0.00
2019-01-22T06:50:01.488Z,0.00
2019-01-22T06:51:01.448Z,0.00
2019-01-22T06:52:01.429Z,0.00
2019-01-22T06:53:01.417Z,0.00
2019-01-22T06:54:01.407Z,0.00
2019-01-22T06:55:01.408Z,0.00
2019-01-22T06:56:01.409Z,0.00
2019-01-22T06:57:01.367Z,0.00
2019-01-22T06:58:01.355Z,0.00
2019-01-22T06:59:01.341Z,0.00
2019-01-22T07:00:01.328Z,0.00
2019-01-22T07:01:01.316Z,5.63
2019-01-22T07:02:01.304Z,5.63
2019-01-22T07:03:01.311Z,5.63
2019-01-22T07:04:01.276Z,5.63
2019-01-22T07:05:01.315Z,5.63
2019-01-22T07:06:01.253Z,5.63
2019-01-22T07:07:01.283Z,5.63
2019-01-22T07:08:01.264Z,5.63
2019-01-22T07:09:01.216Z,5.63
2019-01-22T07:10:01.214Z,11.25
2019-01-22T07:11:01.192Z,11.25
2019-01-22T07:12:01.176Z,11.25
2019-01-22T07:13:01.164Z,11.25
2019-01-22T07:14:01.151Z,11.25
2019-01-22T07:15:01.134Z,11.25
2019-01-22T07:16:01.129Z,11.25
2019-01-22T07:17:01.111Z,16.88
2019-01-22T07:18:01.099Z,16.88
2019-01-22T07:19:01.099Z,16.88
2019-01-22T07:20:01.073Z,16.88
2019-01-22T07:21:01.065Z,16.88
2019-01-22T07:22:01.050Z,16.88
2019-01-22T07:23:01.036Z,22.50
2019-01-22T07:24:01.036Z,22.50
2019-01-22T07:25:04.724Z,22.50
2019-01-22T07:26:01.003Z,22.50
2019-01-22T07:27:00.987Z,22.50
2019-01-22T07:28:00.975Z,22.50
2019-01-22T07:29:00.961Z,28.13
2019-01-22T07:30:00.958Z,28.13
2019-01-22T07:31:00.937Z,28.13
2019-01-22T07:32:00.926Z,28.13
2019-01-22T07:33:00.909Z,33.75
2019-01-22T07:34:00.902Z,33.75
2019-01-22T07:35:00.891Z,33.75
2019-01-22T07:36:00.874Z,39.38
2019-01-22T07:37:00.855Z,39.38
2019-01-22T07:38:00.852Z,39.38
2019-01-22T07:39:00.838Z,39.38
2019-01-22T07:40:00.824Z,45.00
2019-01-22T07:41:00.811Z,45.00
2019-01-22T07:42:00.799Z,45.00
2019-01-22T07:43:00.786Z,45.00
2019-01-22T07:44:00.777Z,45.00
2019-01-22T07:45:00.766Z,50.63
2019-01-22T07:46:00.771Z,50.63
2019-01-22T07:47:00.749Z,50.63
2019-01-22T07:48:00.725Z,56.25
2019-01-22T07:49:00.731Z,56.25
2019-01-22T07:50:00.703Z,56.25
2019-01-22T07:51:00.687Z,56.25
2019-01-22T07:52:00.691Z,56.25
2019-01-22T07:53:00.662Z,61.88
2019-01-22T07:54:00.652Z,61.88
2019-01-22T07:55:00.641Z,61.88
2019-01-22T07:56:00.623Z,61.88
2019-01-22T07:57:00.700Z,61.88
2019-01-22T07:58:01.457Z,67.50
2019-01-22T07:59:00.591Z,67.50
2019-01-22T08:00:00.577Z,67.50
2019-01-22T08:01:00.562Z,67.50
2019-01-22T08:02:00.542Z,73.13
2019-01-22T08:03:00.546Z,73.13
2019-01-22T08:04:00.527Z,73.13
2019-01-22T08:05:00.521Z,73.13
2019-01-22T08:06:00.500Z,78.75
2019-01-22T08:07:00.490Z,78.75
2019-01-22T08:08:00.475Z,78.75
2019-01-22T08:09:00.453Z,84.38
2019-01-22T08:10:00.450Z,84.38
2019-01-22T08:11:00.494Z,84.38
2019-01-22T08:12:00.423Z,84.38
2019-01-22T08:13:00.408Z,84.38
2019-01-22T08:14:00.400Z,84.38
2019-01-22T08:15:00.401Z,90.00
2019-01-22T08:16:00.376Z,90.00
2019-01-22T08:17:00.358Z,95.63
2019-01-22T08:18:00.352Z,101.25
2019-01-22T08:19:00.357Z,106.88
2019-01-22T08:20:00.327Z,106.88
2019-01-22T08:21:00.313Z,106.88
2019-01-22T08:22:00.300Z,112.50
2019-01-22T08:23:00.291Z,112.50
2019-01-22T08:24:00.279Z,112.50
2019-01-22T08:25:00.827Z,112.50
2019-01-22T08:26:00.254Z,118.13
2019-01-22T08:27:00.252Z,118.13
2019-01-22T08:28:00.235Z,123.75
2019-01-22T08:29:00.235Z,123.75
2019-01-22T08:30:00.213Z,129.38
2019-01-22T08:31:00.192Z,129.38
2019-01-22T08:32:00.206Z,129.38
2019-01-22T08:33:00.168Z,129.38
2019-01-22T08:34:00.157Z,129.38
2019-01-22T08:35:00.197Z,129.38
2019-01-22T08:36:00.134Z,129.38
2019-01-22T08:37:00.122Z,135.00
2019-01-22T08:38:00.108Z,135.00
2019-01-22T08:39:00.088Z,140.63
2019-01-22T08:40:00.239Z,140.63
2019-01-22T08:41:00.086Z,140.63
2019-01-22T08:42:00.070Z,140.63
2019-01-22T08:43:00.047Z,140.63
2019-01-22T08:44:00.036Z,146.25
2019-01-22T08:45:00.024Z,146.25
2019-01-22T08:46:00.012Z,151.88
2019-01-22T08:46:59.999Z,151.88
2019-01-22T08:48:00.039Z,151.88
2019-01-22T08:49:02.303Z,157.50
2019-01-22T08:49:59.956Z,157.50
2019-01-22T08:50:59.947Z,163.13
2019-01-22T08:51:59.940Z,163.13
2019-01-22T08:53:00.177Z,163.13
2019-01-22T08:53:59.918Z,168.75
2019-01-22T08:54:59.901Z,168.75
2019-01-22T08:55:59.894Z,174.38
2019-01-22T08:56:59.876Z,180.00
2019-01-22T08:57:59.867Z,180.00
2019-01-22T08:58:59.857Z,185.63
2019-01-22T08:59:59.843Z,180.00
2019-01-22T09:00:59.834Z,180.00
2019-01-22T09:01:59.820Z,185.63
2019-01-22T09:02:59.808Z,185.63
2019-01-22T09:03:59.799Z,191.25
2019-01-22T09:04:59.783Z,191.25
2019-01-22T09:05:59.774Z,196.88
2019-01-22T09:06:59.763Z,196.88
2019-01-22T09:07:59.760Z,191.25
2019-01-22T09:08:59.757Z,196.88
2019-01-22T09:09:59.724Z,196.88
2019-01-22T09:10:59.713Z,202.50
2019-01-22T09:11:59.704Z,202.50
2019-01-22T09:12:59.689Z,208.13
2019-01-22T09:13:59.677Z,208.13
2019-01-22T09:14:59.668Z,213.75
2019-01-22T09:15:59.654Z,208.13
2019-01-22T09:16:59.655Z,219.38
2019-01-22T09:17:59.634Z,219.38
2019-01-22T09:18:59.623Z,225.00
2019-01-22T09:19:59.610Z,225.00
2019-01-22T09:20:59.601Z,225.00
2019-01-22T09:21:59.587Z,225.00
2019-01-22T09:22:59.577Z,225.00
2019-01-22T09:23:59.569Z,225.00
2019-01-22T09:24:59.553Z,230.63
2019-01-22T09:25:59.541Z,230.63
2019-01-22T09:26:59.519Z,236.25
2019-01-22T09:27:59.524Z,236.25
2019-01-22T09:28:59.508Z,236.25
2019-01-22T09:29:59.520Z,241.88
2019-01-22T09:30:59.484Z,247.50
2019-01-22T09:31:59.469Z,253.13
2019-01-22T09:32:59.463Z,258.75
2019-01-22T09:33:59.451Z,264.38
2019-01-22T09:34:59.440Z,258.75
2019-01-22T09:35:59.435Z,253.13
2019-01-22T09:36:59.416Z,253.13
2019-01-22T09:37:59.406Z,253.13
2019-01-22T09:38:59.429Z,258.75
2019-01-22T09:39:59.433Z,264.38
2019-01-22T09:40:59.375Z,270.00
2019-01-22T09:41:59.365Z,270.00
2019-01-22T09:42:59.348Z,281.25
2019-01-22T09:43:59.339Z,292.50
2019-01-22T09:44:59.324Z,303.75
2019-01-22T09:45:59.317Z,309.38
2019-01-22T09:46:59.304Z,309.38
2019-01-22T09:47:59.296Z,315.00
2019-01-22T09:48:59.285Z,331.88
2019-01-22T09:49:59.279Z,337.50
2019-01-22T09:50:59.259Z,326.25
2019-01-22T09:51:59.250Z,309.38
2019-01-22T09:52:59.237Z,309.38
2019-01-22T09:53:59.227Z,315.00
2019-01-22T09:54:59.213Z,315.00
2019-01-22T09:56:00.794Z,320.63
2019-01-22T09:56:59.192Z,326.25
2019-01-22T09:57:59.229Z,326.25
2019-01-22T09:58:59.168Z,326.25
2019-01-22T09:59:59.171Z,315.00
2019-01-22T10:00:59.151Z,309.38
2019-01-22T10:01:59.138Z,320.63
2019-01-22T10:02:59.140Z,320.63
2019-01-22T10:04:03.467Z,320.63
2019-01-22T10:04:59.105Z,320.63
2019-01-22T10:05:59.095Z,315.00
2019-01-22T10:06:59.084Z,315.00
2019-01-22T10:07:59.078Z,303.75
2019-01-22T10:08:59.063Z,303.75
2019-01-22T10:09:59.050Z,298.13
2019-01-22T10:11:01.746Z,292.50
2019-01-22T10:11:59.032Z,292.50
2019-01-22T10:12:59.017Z,292.50
2019-01-22T10:13:59.012Z,298.13
2019-01-22T10:14:59.009Z,298.13
2019-01-22T10:15:58.988Z,309.38
2019-01-22T10:16:58.977Z,315.00
2019-01-22T10:17:58.969Z,315.00
2019-01-22T10:18:58.957Z,315.00
2019-01-22T10:19:58.949Z,315.00
2019-01-22T10:20:58.937Z,315.00
2019-01-22T10:21:58.924Z,309.38
2019-01-22T10:22:58.918Z,309.38
2019-01-22T10:23:58.931Z,309.38
2019-01-22T10:24:58.942Z,309.38
2019-01-22T10:25:58.919Z,320.63
2019-01-22T10:26:58.926Z,315.00
2019-01-22T10:27:58.869Z,320.63
2019-01-22T10:28:58.867Z,320.63
2019-01-22T10:30:00.509Z,320.63
2019-01-22T10:31:00.528Z,320.63
2019-01-22T10:31:58.850Z,320.63
2019-01-22T10:32:58.814Z,315.00
2019-01-22T10:33:58.803Z,315.00
2019-01-22T10:34:58.792Z,315.00
2019-01-22T10:35:58.789Z,315.00
2019-01-22T10:36:58.772Z,320.63
2019-01-22T10:37:58.761Z,326.25
2019-01-22T10:38:58.753Z,326.25
2019-01-22T10:39:58.743Z,331.88
2019-01-22T10:40:58.722Z,326.25
2019-01-22T10:41:58.720Z,320.63
2019-01-22T10:42:58.720Z,315.00
2019-01-22T10:43:58.700Z,320.63
2019-01-22T10:44:58.689Z,320.63
2019-01-22T10:45:58.679Z,320.63
2019-01-22T10:46:58.670Z,331.88
2019-01-22T10:47:58.657Z,331.88
2019-01-22T10:48:58.651Z,337.50
2019-01-22T10:49:58.629Z,343.13
2019-01-22T10:50:58.627Z,343.13
2019-01-22T10:51:58.615Z,343.13
2019-01-22T10:52:58.603Z,354.38
2019-01-22T10:53:58.597Z,354.38
2019-01-22T10:54:58.600Z,365.63
2019-01-22T10:55:58.576Z,371.25
2019-01-22T10:56:58.563Z,371.25
2019-01-22T10:57:58.554Z,360.00
2019-01-22T10:58:58.555Z,360.00
2019-01-22T10:59:58.535Z,365.63
2019-01-22T11:00:58.525Z,365.63
2019-01-22T11:01:58.511Z,360.00
2019-01-22T11:02:58.501Z,354.38
2019-01-22T11:03:58.492Z,354.38
2019-01-22T11:04:58.480Z,354.38
2019-01-22T11:05:58.461Z,360.00
2019-01-22T11:06:58.456Z,354.38
2019-01-22T11:07:58.448Z,348.75
2019-01-22T11:08:58.439Z,343.13
2019-01-22T11:09:58.428Z,343.13
2019-01-22T11:10:58.421Z,343.13
2019-01-22T11:11:58.408Z,337.50
2019-01-22T11:12:58.397Z,337.50
2019-01-22T11:13:58.384Z,331.88
2019-01-22T11:14:58.376Z,331.88
2019-01-22T11:15:58.362Z,331.88
2019-01-22T11:16:58.357Z,331.88
2019-01-22T11:17:58.349Z,326.25
2019-01-22T11:18:58.341Z,331.88
2019-01-22T11:19:58.330Z,337.50
2019-01-22T11:20:58.315Z,343.13
2019-01-22T11:21:58.313Z,343.13
2019-01-22T11:22:58.298Z,343.13
2019-01-22T11:23:58.286Z,343.13
2019-01-22T11:24:58.276Z,354.38
2019-01-22T11:25:58.267Z,360.00
2019-01-22T11:26:58.258Z,371.25
2019-01-22T11:27:58.246Z,376.88
2019-01-22T11:28:58.246Z,376.88
2019-01-22T11:29:58.227Z,376.88
2019-01-22T11:30:58.221Z,376.88
2019-01-22T11:31:58.209Z,382.50
2019-01-22T11:32:58.195Z,376.88
2019-01-22T11:33:58.193Z,382.50
2019-01-22T11:34:58.175Z,382.50
2019-01-22T11:35:58.171Z,382.50
2019-01-22T11:36:58.164Z,382.50
2019-01-22T11:37:58.142Z,388.13
2019-01-22T11:38:58.132Z,393.75
2019-01-22T11:39:58.125Z,393.75
2019-01-22T11:40:58.114Z,393.75
2019-01-22T11:41:58.105Z,393.75
2019-01-22T11:42:58.095Z,388.13
2019-01-22T11:43:58.089Z,388.13
2019-01-22T11:44:58.071Z,382.50
2019-01-22T11:45:58.057Z,376.88
2019-01-22T11:46:58.067Z,376.88
2019-01-22T11:47:58.047Z,371.25
2019-01-22T11:48:58.056Z,365.63
2019-01-22T11:49:58.027Z,360.00
2019-01-22T11:50:58.015Z,360.00
2019-01-22T11:51:58.006Z,365.63
2019-01-22T11:52:57.995Z,371.25
2019-01-22T11:53:57.986Z,371.25
2019-01-22T11:54:57.983Z,371.25
2019-01-22T11:55:57.967Z,376.88
2019-01-22T11:56:57.972Z,388.13
2019-01-22T11:57:57.946Z,393.75
2019-01-22T11:58:57.936Z,399.38
2019-01-22T11:59:57.925Z,405.00
2019-01-22T12:00:57.919Z,405.00
2019-01-22T12:01:57.907Z,399.38
2019-01-22T12:02:57.891Z,393.75
2019-01-22T12:03:57.881Z,393.75
2019-01-22T12:04:57.883Z,399.38
2019-01-22T12:05:57.865Z,399.38
2019-01-22T12:06:57.858Z,393.75
2019-01-22T12:07:57.849Z,388.13
2019-01-22T12:08:57.835Z,382.50
2019-01-22T12:09:57.826Z,382.50
2019-01-22T12:10:57.858Z,376.88
2019-01-22T12:11:57.808Z,376.88
2019-01-22T12:12:57.803Z,371.25
2019-01-22T12:13:57.785Z,376.88
2019-01-22T12:14:57.777Z,376.88
2019-01-22T12:15:57.767Z,376.88
2019-01-22T12:16:57.755Z,371.25
2019-01-22T12:17:57.745Z,371.25
2019-01-22T12:18:57.742Z,371.25
2019-01-22T12:20:01.377Z,365.63
2019-01-22T12:20:57.721Z,371.25
2019-01-22T12:21:57.712Z,382.50
2019-01-22T12:22:57.703Z,405.00
2019-01-22T12:23:57.689Z,416.25
2019-01-22T12:24:57.673Z,427.50
2019-01-22T12:25:57.672Z,433.13
2019-01-22T12:26:57.671Z,438.75
2019-01-22T12:27:57.652Z,433.13
2019-01-22T12:28:57.643Z,433.13
2019-01-22T12:29:57.632Z,427.50
2019-01-22T12:30:57.623Z,410.63
2019-01-22T12:31:57.612Z,399.38
2019-01-22T12:32:57.610Z,393.75
2019-01-22T12:33:57.594Z,382.50
2019-01-22T12:34:57.596Z,376.88
2019-01-22T12:35:57.572Z,371.25
2019-01-22T12:36:57.566Z,365.63
2019-01-22T12:37:57.556Z,365.63
2019-01-22T12:38:57.548Z,365.63
2019-01-22T12:39:57.536Z,365.63
2019-01-22T12:40:57.541Z,360.00
2019-01-22T12:41:57.518Z,360.00
2019-01-22T12:42:57.510Z,360.00
2019-01-22T12:43:57.504Z,365.63
2019-01-22T12:44:57.496Z,365.63
2019-01-22T12:45:57.480Z,376.88
2019-01-22T12:46:57.472Z,376.88
2019-01-22T12:47:57.475Z,388.13
2019-01-22T12:48:57.444Z,399.38
2019-01-22T12:49:57.442Z,405.00
2019-01-22T12:50:57.442Z,410.63
2019-01-22T12:51:57.426Z,416.25
2019-01-22T12:52:57.415Z,427.50
2019-01-22T12:53:57.407Z,433.13
2019-01-22T12:54:57.397Z,433.13
2019-01-22T12:56:04.257Z,433.13
2019-01-22T12:56:57.375Z,438.75